sensor_id;sensor_type;location;lat;lon;timestamp;P1;durP1;ratioP1;P2;durP2;ratioP2
2161;SDS011;1087;50.226;8.682;2023-04-15T00:02:16;6.30;;;5.70;;
2161;SDS011;1087;50.226;8.682;2023-04-15T00:04:44;6.57;;;5.87;;
2161;SDS011;1087;50.226;8.682;2023-04-15T00:07:10;5.73;;;5.20;;
2161;SDS011;1087;50.226;8.682;2023-04-15T00:09:36;6.63;;;6.03;;
2161;SDS011;1087;50.226;8.682;2023-04-15T00:12:02;6.03;;;4.50;;
2161;SDS011;1087;50.226;8.682;2023-04-15T00:14:27;5.17;;;4.50;;
2161;SDS011;1087;50.226;8.682;2023-04-15T00:16:53;5.90;;;4.70;;
2161;SDS011;1087;50.226;8.682;2023-04-15T00:19:21;5.57;;;4.30;;
2161;SDS011;1087;50.226;8.682;2023-04-15T00:21:47;4.20;;;3.80;;
2161;SDS011;1087;50.226;8.682;2023-04-15T00:24:12;4.60;;;4.20;;
2161;SDS011;1087;50.226;8.682;2023-04-15T00:26:38;5.53;;;5.03;;
2161;SDS011;1087;50.226;8.682;2023-04-15T00:29:03;5.43;;;4.73;;
2161;SDS011;1087;50.226;8.682;2023-04-15T00:31:29;8.63;;;4.67;;
2161;SDS011;1087;50.226;8.682;2023-04-15T00:33:55;7.83;;;4.53;;
2161;SDS011;1087;50.226;8.682;2023-04-15T00:36:21;3.93;;;3.63;;
2161;SDS011;1087;50.226;8.682;2023-04-15T00:38:47;5.70;;;4.03;;
2161;SDS011;1087;50.226;8.682;2023-04-15T00:41:12;4.63;;;4.10;;
2161;SDS011;1087;50.226;8.682;2023-04-15T00:43:38;4.10;;;3.70;;
2161;SDS011;1087;50.226;8.682;2023-04-15T00:46:04;4.33;;;3.93;;
2161;SDS011;1087;50.226;8.682;2023-04-15T00:48:30;7.13;;;4.13;;
2161;SDS011;1087;50.226;8.682;2023-04-15T00:50:56;7.27;;;4.60;;
2161;SDS011;1087;50.226;8.682;2023-04-15T00:53:22;4.90;;;4.47;;
2161;SDS011;1087;50.226;8.682;2023-04-15T00:55:48;4.53;;;4.10;;
2161;SDS011;1087;50.226;8.682;2023-04-15T00:58:15;5.43;;;4.87;;
2161;SDS011;1087;50.226;8.682;2023-04-15T01:00:41;4.50;;;4.10;;
2161;SDS011;1087;50.226;8.682;2023-04-15T01:03:07;4.50;;;4.10;;
2161;SDS011;1087;50.226;8.682;2023-04-15T01:05:33;5.23;;;4.33;;
2161;SDS011;1087;50.226;8.682;2023-04-15T01:08:00;5.90;;;4.10;;
2161;SDS011;1087;50.226;8.682;2023-04-15T01:10:26;5.10;;;4.33;;
2161;SDS011;1087;50.226;8.682;2023-04-15T01:12:52;4.07;;;3.67;;
2161;SDS011;1087;50.226;8.682;2023-04-15T01:15:18;4.90;;;3.77;;
2161;SDS011;1087;50.226;8.682;2023-04-15T01:17:44;5.47;;;3.70;;
2161;SDS011;1087;50.226;8.682;2023-04-15T01:20:10;3.83;;;3.53;;
2161;SDS011;1087;50.226;8.682;2023-04-15T01:22:36;4.33;;;3.97;;
2161;SDS011;1087;50.226;8.682;2023-04-15T01:25:06;4.23;;;3.67;;
2161;SDS011;1087;50.226;8.682;2023-04-15T01:27:36;4.43;;;3.90;;
2161;SDS011;1087;50.226;8.682;2023-04-15T01:30:04;4.70;;;4.27;;
2161;SDS011;1087;50.226;8.682;2023-04-15T01:32:31;4.57;;;4.17;;
2161;SDS011;1087;50.226;8.682;2023-04-15T01:34:56;4.80;;;4.13;;
2161;SDS011;1087;50.226;8.682;2023-04-15T01:37:22;4.70;;;4.30;;
2161;SDS011;1087;50.226;8.682;2023-04-15T01:39:48;4.97;;;4.47;;
2161;SDS011;1087;50.226;8.682;2023-04-15T01:42:13;4.37;;;4.00;;
2161;SDS011;1087;50.226;8.682;2023-04-15T01:44:39;4.97;;;3.80;;
2161;SDS011;1087;50.226;8.682;2023-04-15T01:47:04;4.50;;;4.10;;
2161;SDS011;1087;50.226;8.682;2023-04-15T01:49:30;4.47;;;4.07;;
2161;SDS011;1087;50.226;8.682;2023-04-15T01:51:56;5.23;;;4.30;;
2161;SDS011;1087;50.226;8.682;2023-04-15T01:54:22;5.27;;;3.57;;
2161;SDS011;1087;50.226;8.682;2023-04-15T01:56:47;5.77;;;4.40;;
2161;SDS011;1087;50.226;8.682;2023-04-15T01:59:13;3.87;;;3.57;;
2161;SDS011;1087;50.226;8.682;2023-04-15T02:01:38;3.80;;;3.50;;
2161;SDS011;1087;50.226;8.682;2023-04-15T02:04:04;4.13;;;3.70;;
2161;SDS011;1087;50.226;8.682;2023-04-15T02:06:31;5.53;;;4.20;;
2161;SDS011;1087;50.226;8.682;2023-04-15T02:08:56;6.93;;;4.50;;
2161;SDS011;1087;50.226;8.682;2023-04-15T02:11:22;3.80;;;3.50;;
2161;SDS011;1087;50.226;8.682;2023-04-15T02:13:48;4.80;;;4.40;;
2161;SDS011;1087;50.226;8.682;2023-04-15T02:16:15;5.03;;;4.53;;
2161;SDS011;1087;50.226;8.682;2023-04-15T02:18:41;4.73;;;4.33;;
2161;SDS011;1087;50.226;8.682;2023-04-15T02:21:08;5.20;;;4.30;;
2161;SDS011;1087;50.226;8.682;2023-04-15T02:23:33;5.40;;;4.40;;
2161;SDS011;1087;50.226;8.682;2023-04-15T02:25:59;5.17;;;4.73;;
2161;SDS011;1087;50.226;8.682;2023-04-15T02:28:24;4.93;;;4.47;;
2161;SDS011;1087;50.226;8.682;2023-04-15T02:30:51;7.63;;;5.40;;
2161;SDS011;1087;50.226;8.682;2023-04-15T02:33:18;7.27;;;5.60;;
2161;SDS011;1087;50.226;8.682;2023-04-15T02:35:45;7.23;;;4.90;;
2161;SDS011;1087;50.226;8.682;2023-04-15T02:38:11;8.13;;;5.03;;
2161;SDS011;1087;50.226;8.682;2023-04-15T02:40:38;8.20;;;5.10;;
2161;SDS011;1087;50.226;8.682;2023-04-15T02:43:03;5.27;;;4.77;;
2161;SDS011;1087;50.226;8.682;2023-04-15T02:45:30;4.80;;;4.30;;
2161;SDS011;1087;50.226;8.682;2023-04-15T02:47:56;4.90;;;4.50;;
2161;SDS011;1087;50.226;8.682;2023-04-15T02:50:22;4.93;;;4.43;;
2161;SDS011;1087;50.226;8.682;2023-04-15T02:52:49;7.80;;;4.67;;
2161;SDS011;1087;50.226;8.682;2023-04-15T02:55:15;5.40;;;4.90;;
2161;SDS011;1087;50.226;8.682;2023-04-15T02:57:41;6.50;;;4.93;;
2161;SDS011;1087;50.226;8.682;2023-04-15T03:00:07;5.93;;;4.67;;
2161;SDS011;1087;50.226;8.682;2023-04-15T03:02:36;5.83;;;4.77;;
2161;SDS011;1087;50.226;8.682;2023-04-15T03:05:02;5.03;;;4.63;;
2161;SDS011;1087;50.226;8.682;2023-04-15T03:07:28;5.50;;;4.40;;
2161;SDS011;1087;50.226;8.682;2023-04-15T03:09:54;4.57;;;4.27;;
2161;SDS011;1087;50.226;8.682;2023-04-15T03:12:19;5.97;;;4.47;;
2161;SDS011;1087;50.226;8.682;2023-04-15T03:14:45;8.33;;;4.57;;
2161;SDS011;1087;50.226;8.682;2023-04-15T03:17:10;5.70;;;5.20;;
2161;SDS011;1087;50.226;8.682;2023-04-15T03:19:36;4.83;;;4.43;;
2161;SDS011;1087;50.226;8.682;2023-04-15T03:22:01;5.73;;;4.20;;
2161;SDS011;1087;50.226;8.682;2023-04-15T03:24:27;6.27;;;4.40;;
2161;SDS011;1087;50.226;8.682;2023-04-15T03:26:54;6.10;;;4.07;;
2161;SDS011;1087;50.226;8.682;2023-04-15T03:29:20;4.87;;;4.37;;
2161;SDS011;1087;50.226;8.682;2023-04-15T03:31:45;4.60;;;4.10;;
2161;SDS011;1087;50.226;8.682;2023-04-15T03:34:11;4.67;;;4.27;;
2161;SDS011;1087;50.226;8.682;2023-04-15T03:36:37;4.77;;;4.30;;
2161;SDS011;1087;50.226;8.682;2023-04-15T03:39:02;6.13;;;4.03;;
2161;SDS011;1087;50.226;8.682;2023-04-15T03:41:28;4.07;;;3.67;;
2161;SDS011;1087;50.226;8.682;2023-04-15T03:43:53;4.37;;;4.00;;
2161;SDS011;1087;50.226;8.682;2023-04-15T03:46:19;5.10;;;4.70;;
2161;SDS011;1087;50.226;8.682;2023-04-15T03:48:45;5.70;;;5.00;;
2161;SDS011;1087;50.226;8.682;2023-04-15T03:51:11;6.50;;;5.30;;
2161;SDS011;1087;50.226;8.682;2023-04-15T03:53:36;8.33;;;5.10;;
2161;SDS011;1087;50.226;8.682;2023-04-15T03:56:02;5.20;;;4.70;;
2161;SDS011;1087;50.226;8.682;2023-04-15T03:58:28;5.03;;;4.53;;
2161;SDS011;1087;50.226;8.682;2023-04-15T04:00:53;6.40;;;5.80;;
2161;SDS011;1087;50.226;8.682;2023-04-15T04:03:19;7.77;;;5.53;;
2161;SDS011;1087;50.226;8.682;2023-04-15T04:05:45;5.83;;;5.33;;
2161;SDS011;1087;50.226;8.682;2023-04-15T04:08:10;5.30;;;4.83;;
2161;SDS011;1087;50.226;8.682;2023-04-15T04:10:37;7.30;;;5.30;;
2161;SDS011;1087;50.226;8.682;2023-04-15T04:13:03;5.93;;;5.10;;
2161;SDS011;1087;50.226;8.682;2023-04-15T04:15:29;5.03;;;4.63;;
2161;SDS011;1087;50.226;8.682;2023-04-15T04:17:54;5.67;;;4.97;;
2161;SDS011;1087;50.226;8.682;2023-04-15T04:20:20;4.77;;;4.37;;
2161;SDS011;1087;50.226;8.682;2023-04-15T04:22:45;5.03;;;4.53;;
2161;SDS011;1087;50.226;8.682;2023-04-15T04:25:11;6.00;;;4.57;;
2161;SDS011;1087;50.226;8.682;2023-04-15T04:27:36;4.80;;;4.30;;
2161;SDS011;1087;50.226;8.682;2023-04-15T04:30:02;5.40;;;4.90;;
2161;SDS011;1087;50.226;8.682;2023-04-15T04:32:28;5.70;;;5.20;;
2161;SDS011;1087;50.226;8.682;2023-04-15T04:34:54;5.73;;;4.90;;
2161;SDS011;1087;50.226;8.682;2023-04-15T04:37:20;5.47;;;4.97;;
2161;SDS011;1087;50.226;8.682;2023-04-15T04:39:47;5.10;;;4.70;;
2161;SDS011;1087;50.226;8.682;2023-04-15T04:42:12;5.83;;;5.30;;
2161;SDS011;1087;50.226;8.682;2023-04-15T04:44:38;6.23;;;5.00;;
2161;SDS011;1087;50.226;8.682;2023-04-15T04:47:03;6.27;;;5.67;;
2161;SDS011;1087;50.226;8.682;2023-04-15T04:49:30;6.40;;;5.70;;
2161;SDS011;1087;50.226;8.682;2023-04-15T04:51:56;5.70;;;5.10;;
2161;SDS011;1087;50.226;8.682;2023-04-15T04:54:21;5.63;;;4.87;;
2161;SDS011;1087;50.226;8.682;2023-04-15T04:56:47;7.23;;;6.47;;
2161;SDS011;1087;50.226;8.682;2023-04-15T04:59:13;5.50;;;5.00;;
2161;SDS011;1087;50.226;8.682;2023-04-15T05:01:38;6.70;;;6.00;;
2161;SDS011;1087;50.226;8.682;2023-04-15T05:04:04;7.40;;;6.30;;
2161;SDS011;1087;50.226;8.682;2023-04-15T05:06:31;8.90;;;5.90;;
2161;SDS011;1087;50.226;8.682;2023-04-15T05:08:57;6.53;;;5.97;;
2161;SDS011;1087;50.226;8.682;2023-04-15T05:11:22;6.10;;;5.57;;
2161;SDS011;1087;50.226;8.682;2023-04-15T05:13:48;6.33;;;5.80;;
2161;SDS011;1087;50.226;8.682;2023-04-15T05:16:14;6.83;;;5.67;;
2161;SDS011;1087;50.226;8.682;2023-04-15T05:18:39;7.10;;;6.40;;
2161;SDS011;1087;50.226;8.682;2023-04-15T05:21:05;7.03;;;6.13;;
2161;SDS011;1087;50.226;8.682;2023-04-15T05:23:30;6.00;;;5.40;;
2161;SDS011;1087;50.226;8.682;2023-04-15T05:25:56;6.93;;;5.93;;
2161;SDS011;1087;50.226;8.682;2023-04-15T05:28:22;6.33;;;5.60;;
2161;SDS011;1087;50.226;8.682;2023-04-15T05:30:47;6.43;;;5.60;;
2161;SDS011;1087;50.226;8.682;2023-04-15T05:33:13;5.87;;;5.30;;
2161;SDS011;1087;50.226;8.682;2023-04-15T05:35:38;5.60;;;5.10;;
2161;SDS011;1087;50.226;8.682;2023-04-15T05:38:04;6.87;;;5.87;;
2161;SDS011;1087;50.226;8.682;2023-04-15T05:40:29;8.67;;;5.77;;
2161;SDS011;1087;50.226;8.682;2023-04-15T05:42:55;6.70;;;6.10;;
2161;SDS011;1087;50.226;8.682;2023-04-15T05:45:21;6.17;;;5.20;;
2161;SDS011;1087;50.226;8.682;2023-04-15T05:47:46;6.47;;;5.60;;
2161;SDS011;1087;50.226;8.682;2023-04-15T05:50:14;8.30;;;6.33;;
2161;SDS011;1087;50.226;8.682;2023-04-15T05:52:39;6.03;;;5.53;;
2161;SDS011;1087;50.226;8.682;2023-04-15T05:55:05;6.70;;;5.37;;
2161;SDS011;1087;50.226;8.682;2023-04-15T05:57:31;8.27;;;6.30;;
2161;SDS011;1087;50.226;8.682;2023-04-15T05:59:56;8.70;;;5.50;;
2161;SDS011;1087;50.226;8.682;2023-04-15T06:02:22;5.63;;;5.13;;
2161;SDS011;1087;50.226;8.682;2023-04-15T06:04:47;7.20;;;5.70;;
2161;SDS011;1087;50.226;8.682;2023-04-15T06:07:13;6.17;;;5.57;;
2161;SDS011;1087;50.226;8.682;2023-04-15T06:09:39;6.83;;;6.17;;
2161;SDS011;1087;50.226;8.682;2023-04-15T06:12:05;6.53;;;5.83;;
2161;SDS011;1087;50.226;8.682;2023-04-15T06:14:35;8.83;;;5.57;;
2161;SDS011;1087;50.226;8.682;2023-04-15T06:17:02;7.17;;;5.60;;
2161;SDS011;1087;50.226;8.682;2023-04-15T06:19:27;7.63;;;6.30;;
2161;SDS011;1087;50.226;8.682;2023-04-15T06:21:53;8.10;;;7.23;;
2161;SDS011;1087;50.226;8.682;2023-04-15T06:24:19;9.70;;;8.67;;
2161;SDS011;1087;50.226;8.682;2023-04-15T06:26:44;12.73;;;9.83;;
2161;SDS011;1087;50.226;8.682;2023-04-15T06:29:10;8.37;;;7.57;;
2161;SDS011;1087;50.226;8.682;2023-04-15T06:31:35;9.40;;;8.47;;
2161;SDS011;1087;50.226;8.682;2023-04-15T06:34:01;11.90;;;10.63;;
2161;SDS011;1087;50.226;8.682;2023-04-15T06:36:26;9.70;;;8.70;;
2161;SDS011;1087;50.226;8.682;2023-04-15T06:38:52;8.80;;;7.40;;
2161;SDS011;1087;50.226;8.682;2023-04-15T06:41:17;7.67;;;6.87;;
2161;SDS011;1087;50.226;8.682;2023-04-15T06:43:43;8.87;;;7.10;;
2161;SDS011;1087;50.226;8.682;2023-04-15T06:46:08;7.93;;;7.10;;
2161;SDS011;1087;50.226;8.682;2023-04-15T06:48:34;7.67;;;6.97;;
2161;SDS011;1087;50.226;8.682;2023-04-15T06:51:00;8.33;;;7.60;;
2161;SDS011;1087;50.226;8.682;2023-04-15T06:53:26;8.95;;;8.10;;
2161;SDS011;1087;50.226;8.682;2023-04-15T06:55:52;10.47;;;8.20;;
2161;SDS011;1087;50.226;8.682;2023-04-15T06:58:17;8.90;;;7.60;;
2161;SDS011;1087;50.226;8.682;2023-04-15T07:00:43;8.10;;;7.30;;
2161;SDS011;1087;50.226;8.682;2023-04-15T07:03:08;10.40;;;8.10;;
2161;SDS011;1087;50.226;8.682;2023-04-15T07:05:36;9.30;;;8.40;;
2161;SDS011;1087;50.226;8.682;2023-04-15T07:08:02;10.93;;;9.00;;
2161;SDS011;1087;50.226;8.682;2023-04-15T07:10:28;9.93;;;8.60;;
2161;SDS011;1087;50.226;8.682;2023-04-15T07:12:53;12.37;;;8.90;;
2161;SDS011;1087;50.226;8.682;2023-04-15T07:15:19;9.50;;;7.90;;
2161;SDS011;1087;50.226;8.682;2023-04-15T07:17:45;9.97;;;9.03;;
2161;SDS011;1087;50.226;8.682;2023-04-15T07:20:10;10.73;;;8.80;;
2161;SDS011;1087;50.226;8.682;2023-04-15T07:22:36;11.07;;;9.90;;
2161;SDS011;1087;50.226;8.682;2023-04-15T07:25:02;9.97;;;8.87;;
2161;SDS011;1087;50.226;8.682;2023-04-15T07:27:28;11.60;;;9.40;;
2161;SDS011;1087;50.226;8.682;2023-04-15T07:29:53;11.50;;;8.57;;
2161;SDS011;1087;50.226;8.682;2023-04-15T07:32:19;10.00;;;8.57;;
2161;SDS011;1087;50.226;8.682;2023-04-15T07:34:44;9.30;;;8.33;;
2161;SDS011;1087;50.226;8.682;2023-04-15T07:37:10;10.53;;;8.80;;
2161;SDS011;1087;50.226;8.682;2023-04-15T07:39:36;11.60;;;9.00;;
2161;SDS011;1087;50.226;8.682;2023-04-15T07:42:02;10.30;;;8.70;;
2161;SDS011;1087;50.226;8.682;2023-04-15T07:44:28;9.43;;;8.53;;
2161;SDS011;1087;50.226;8.682;2023-04-15T07:46:54;14.17;;;10.83;;
2161;SDS011;1087;50.226;8.682;2023-04-15T07:49:20;11.97;;;9.10;;
2161;SDS011;1087;50.226;8.682;2023-04-15T07:51:46;8.20;;;7.33;;
2161;SDS011;1087;50.226;8.682;2023-04-15T07:54:13;6.77;;;6.17;;
2161;SDS011;1087;50.226;8.682;2023-04-15T07:56:39;6.93;;;6.33;;
2161;SDS011;1087;50.226;8.682;2023-04-15T07:59:05;8.17;;;6.33;;
2161;SDS011;1087;50.226;8.682;2023-04-15T08:01:30;6.30;;;5.67;;
2161;SDS011;1087;50.226;8.682;2023-04-15T08:03:57;6.07;;;5.57;;
2161;SDS011;1087;50.226;8.682;2023-04-15T08:06:23;8.13;;;6.07;;
2161;SDS011;1087;50.226;8.682;2023-04-15T08:08:48;5.90;;;5.30;;
2161;SDS011;1087;50.226;8.682;2023-04-15T08:11:14;6.87;;;6.17;;
2161;SDS011;1087;50.226;8.682;2023-04-15T08:13:40;7.40;;;6.50;;
2161;SDS011;1087;50.226;8.682;2023-04-15T08:16:19;7.90;;;6.60;;
2161;SDS011;1087;50.226;8.682;2023-04-15T08:18:47;7.30;;;6.60;;
2161;SDS011;1087;50.226;8.682;2023-04-15T08:21:14;10.50;;;7.43;;
2161;SDS011;1087;50.226;8.682;2023-04-15T08:23:40;8.90;;;7.73;;
2161;SDS011;1087;50.226;8.682;2023-04-15T08:26:07;9.20;;;7.50;;
2161;SDS011;1087;50.226;8.682;2023-04-15T08:28:33;8.17;;;6.47;;
2161;SDS011;1087;50.226;8.682;2023-04-15T08:30:58;7.07;;;6.17;;
2161;SDS011;1087;50.226;8.682;2023-04-15T08:33:24;7.50;;;6.33;;
2161;SDS011;1087;50.226;8.682;2023-04-15T08:35:50;7.33;;;6.40;;
2161;SDS011;1087;50.226;8.682;2023-04-15T08:38:15;7.10;;;6.47;;
2161;SDS011;1087;50.226;8.682;2023-04-15T08:40:43;7.17;;;6.00;;
2161;SDS011;1087;50.226;8.682;2023-04-15T08:43:10;6.50;;;5.90;;
2161;SDS011;1087;50.226;8.682;2023-04-15T08:45:39;7.60;;;5.53;;
2161;SDS011;1087;50.226;8.682;2023-04-15T08:48:05;7.90;;;7.20;;
2161;SDS011;1087;50.226;8.682;2023-04-15T08:50:33;6.47;;;5.87;;
2161;SDS011;1087;50.226;8.682;2023-04-15T08:52:59;7.90;;;5.70;;
2161;SDS011;1087;50.226;8.682;2023-04-15T08:55:26;6.60;;;5.40;;
2161;SDS011;1087;50.226;8.682;2023-04-15T08:57:54;6.43;;;5.83;;
2161;SDS011;1087;50.226;8.682;2023-04-15T09:00:20;7.40;;;6.60;;
2161;SDS011;1087;50.226;8.682;2023-04-15T09:02:47;6.03;;;5.50;;
2161;SDS011;1087;50.226;8.682;2023-04-15T09:05:12;10.20;;;6.30;;
2161;SDS011;1087;50.226;8.682;2023-04-15T09:07:38;6.10;;;5.60;;
2161;SDS011;1087;50.226;8.682;2023-04-15T09:10:04;7.50;;;6.43;;
2161;SDS011;1087;50.226;8.682;2023-04-15T09:12:32;6.73;;;5.20;;
2161;SDS011;1087;50.226;8.682;2023-04-15T09:15:02;6.57;;;5.17;;
2161;SDS011;1087;50.226;8.682;2023-04-15T09:17:28;6.30;;;5.30;;
2161;SDS011;1087;50.226;8.682;2023-04-15T09:20:07;5.97;;;5.37;;
2161;SDS011;1087;50.226;8.682;2023-04-15T09:22:34;8.25;;;6.75;;
2161;SDS011;1087;50.226;8.682;2023-04-15T09:25:01;5.87;;;5.37;;
2161;SDS011;1087;50.226;8.682;2023-04-15T09:27:27;5.30;;;4.80;;
2161;SDS011;1087;50.226;8.682;2023-04-15T09:29:53;5.10;;;4.30;;
2161;SDS011;1087;50.226;8.682;2023-04-15T09:32:18;4.53;;;3.70;;
2161;SDS011;1087;50.226;8.682;2023-04-15T09:34:47;4.40;;;4.00;;
2161;SDS011;1087;50.226;8.682;2023-04-15T09:37:13;3.90;;;3.37;;
2161;SDS011;1087;50.226;8.682;2023-04-15T09:39:45;6.57;;;4.27;;
2161;SDS011;1087;50.226;8.682;2023-04-15T09:42:12;3.90;;;3.50;;
2161;SDS011;1087;50.226;8.682;2023-04-15T09:44:38;4.00;;;3.70;;
2161;SDS011;1087;50.226;8.682;2023-04-15T09:47:04;5.40;;;4.10;;
2161;SDS011;1087;50.226;8.682;2023-04-15T09:49:30;4.70;;;4.30;;
2161;SDS011;1087;50.226;8.682;2023-04-15T09:51:59;5.20;;;4.57;;
2161;SDS011;1087;50.226;8.682;2023-04-15T09:54:32;5.63;;;4.20;;
2161;SDS011;1087;50.226;8.682;2023-04-15T09:57:03;4.87;;;4.40;;
2161;SDS011;1087;50.226;8.682;2023-04-15T09:59:30;6.07;;;5.13;;
2161;SDS011;1087;50.226;8.682;2023-04-15T10:01:55;5.27;;;4.63;;
2161;SDS011;1087;50.226;8.682;2023-04-15T10:04:21;6.60;;;5.20;;
2161;SDS011;1087;50.226;8.682;2023-04-15T10:06:48;7.47;;;4.40;;
2161;SDS011;1087;50.226;8.682;2023-04-15T10:09:14;5.33;;;4.93;;
2161;SDS011;1087;50.226;8.682;2023-04-15T10:11:41;5.00;;;4.60;;
2161;SDS011;1087;50.226;8.682;2023-04-15T10:14:08;4.53;;;4.10;;
2161;SDS011;1087;50.226;8.682;2023-04-15T10:16:35;4.10;;;3.80;;
2161;SDS011;1087;50.226;8.682;2023-04-15T10:19:06;4.37;;;3.97;;
2161;SDS011;1087;50.226;8.682;2023-04-15T10:21:34;5.00;;;4.60;;
2161;SDS011;1087;50.226;8.682;2023-04-15T10:24:01;3.83;;;3.53;;
2161;SDS011;1087;50.226;8.682;2023-04-15T10:26:27;4.00;;;3.70;;
2161;SDS011;1087;50.226;8.682;2023-04-15T10:28:53;5.50;;;3.67;;
2161;SDS011;1087;50.226;8.682;2023-04-15T10:31:19;4.97;;;4.50;;
2161;SDS011;1087;50.226;8.682;2023-04-15T10:33:45;4.63;;;3.93;;
2161;SDS011;1087;50.226;8.682;2023-04-15T10:36:12;3.87;;;3.53;;
2161;SDS011;1087;50.226;8.682;2023-04-15T10:38:39;5.17;;;3.80;;
2161;SDS011;1087;50.226;8.682;2023-04-15T10:41:22;4.40;;;3.77;;
2161;SDS011;1087;50.226;8.682;2023-04-15T10:46:21;4.87;;;4.07;;
2161;SDS011;1087;50.226;8.682;2023-04-15T10:48:48;5.57;;;3.50;;
2161;SDS011;1087;50.226;8.682;2023-04-15T10:51:15;4.37;;;3.97;;
2161;SDS011;1087;50.226;8.682;2023-04-15T10:53:41;5.97;;;3.90;;
2161;SDS011;1087;50.226;8.682;2023-04-15T10:56:07;4.47;;;4.07;;
2161;SDS011;1087;50.226;8.682;2023-04-15T10:58:41;3.93;;;3.53;;
2161;SDS011;1087;50.226;8.682;2023-04-15T11:01:07;4.33;;;3.93;;
2161;SDS011;1087;50.226;8.682;2023-04-15T11:03:35;4.90;;;4.50;;
2161;SDS011;1087;50.226;8.682;2023-04-15T11:06:02;4.13;;;3.80;;
2161;SDS011;1087;50.226;8.682;2023-04-15T11:11:19;4.60;;;4.20;;
2161;SDS011;1087;50.226;8.682;2023-04-15T11:13:49;4.40;;;4.00;;
2161;SDS011;1087;50.226;8.682;2023-04-15T11:16:15;4.90;;;4.40;;
2161;SDS011;1087;50.226;8.682;2023-04-15T11:18:41;4.60;;;4.20;;
2161;SDS011;1087;50.226;8.682;2023-04-15T11:21:07;3.57;;;3.30;;
2161;SDS011;1087;50.226;8.682;2023-04-15T11:23:40;4.30;;;3.90;;
2161;SDS011;1087;50.226;8.682;2023-04-15T11:26:10;4.23;;;3.83;;
2161;SDS011;1087;50.226;8.682;2023-04-15T11:28:37;3.90;;;3.60;;
2161;SDS011;1087;50.226;8.682;2023-04-15T11:31:07;3.90;;;3.57;;
2161;SDS011;1087;50.226;8.682;2023-04-15T11:33:56;4.77;;;4.13;;
2161;SDS011;1087;50.226;8.682;2023-04-15T11:36:27;5.43;;;4.90;;
2161;SDS011;1087;50.226;8.682;2023-04-15T11:38:54;4.93;;;4.43;;
2161;SDS011;1087;50.226;8.682;2023-04-15T11:41:20;4.80;;;4.40;;
2161;SDS011;1087;50.226;8.682;2023-04-15T11:43:46;4.67;;;4.23;;
2161;SDS011;1087;50.226;8.682;2023-04-15T11:46:12;4.40;;;4.00;;
2161;SDS011;1087;50.226;8.682;2023-04-15T11:48:40;4.43;;;4.07;;
2161;SDS011;1087;50.226;8.682;2023-04-15T11:51:07;4.77;;;3.77;;
2161;SDS011;1087;50.226;8.682;2023-04-15T11:53:40;4.77;;;4.27;;
2161;SDS011;1087;50.226;8.682;2023-04-15T11:56:15;5.13;;;4.23;;
2161;SDS011;1087;50.226;8.682;2023-04-15T11:58:41;5.20;;;4.40;;
2161;SDS011;1087;50.226;8.682;2023-04-15T12:01:07;4.97;;;4.13;;
2161;SDS011;1087;50.226;8.682;2023-04-15T12:03:36;3.73;;;3.40;;
2161;SDS011;1087;50.226;8.682;2023-04-15T12:11:44;5.37;;;4.87;;
2161;SDS011;1087;50.226;8.682;2023-04-15T12:14:27;5.17;;;4.67;;
2161;SDS011;1087;50.226;8.682;2023-04-15T12:16:55;6.00;;;4.97;;
2161;SDS011;1087;50.226;8.682;2023-04-15T12:19:28;5.33;;;4.90;;
2161;SDS011;1087;50.226;8.682;2023-04-15T12:22:01;4.50;;;4.10;;
2161;SDS011;1087;50.226;8.682;2023-04-15T12:24:32;5.80;;;5.27;;
2161;SDS011;1087;50.226;8.682;2023-04-15T12:27:03;4.63;;;4.23;;
2161;SDS011;1087;50.226;8.682;2023-04-15T12:29:34;5.30;;;4.70;;
2161;SDS011;1087;50.226;8.682;2023-04-15T12:32:04;5.87;;;4.57;;
2161;SDS011;1087;50.226;8.682;2023-04-15T12:34:37;5.43;;;4.93;;
2161;SDS011;1087;50.226;8.682;2023-04-15T12:37:04;5.40;;;5.00;;
2161;SDS011;1087;50.226;8.682;2023-04-15T12:39:40;8.50;;;4.30;;
2161;SDS011;1087;50.226;8.682;2023-04-15T12:42:07;5.60;;;4.57;;
2161;SDS011;1087;50.226;8.682;2023-04-15T12:44:34;4.50;;;4.10;;
2161;SDS011;1087;50.226;8.682;2023-04-15T12:47:00;4.40;;;4.00;;
2161;SDS011;1087;50.226;8.682;2023-04-15T12:49:26;5.00;;;4.30;;
2161;SDS011;1087;50.226;8.682;2023-04-15T12:51:53;5.10;;;3.50;;
2161;SDS011;1087;50.226;8.682;2023-04-15T12:54:19;3.50;;;3.20;;
2161;SDS011;1087;50.226;8.682;2023-04-15T12:56:45;5.17;;;3.03;;
2161;SDS011;1087;50.226;8.682;2023-04-15T12:59:12;2.90;;;2.50;;
2161;SDS011;1087;50.226;8.682;2023-04-15T13:01:39;2.93;;;2.73;;
2161;SDS011;1087;50.226;8.682;2023-04-15T13:04:05;3.03;;;2.73;;
2161;SDS011;1087;50.226;8.682;2023-04-15T13:06:31;2.83;;;2.63;;
2161;SDS011;1087;50.226;8.682;2023-04-15T13:08:58;2.37;;;2.17;;
2161;SDS011;1087;50.226;8.682;2023-04-15T13:11:25;2.80;;;2.50;;
2161;SDS011;1087;50.226;8.682;2023-04-15T13:13:51;3.33;;;3.13;;
2161;SDS011;1087;50.226;8.682;2023-04-15T13:16:17;3.10;;;2.80;;
2161;SDS011;1087;50.226;8.682;2023-04-15T13:18:43;2.83;;;2.30;;
2161;SDS011;1087;50.226;8.682;2023-04-15T13:21:09;1.87;;;1.77;;
2161;SDS011;1087;50.226;8.682;2023-04-15T13:23:36;1.90;;;1.70;;
2161;SDS011;1087;50.226;8.682;2023-04-15T13:26:01;1.73;;;1.63;;
2161;SDS011;1087;50.226;8.682;2023-04-15T13:28:28;1.77;;;1.67;;
2161;SDS011;1087;50.226;8.682;2023-04-15T13:30:53;2.37;;;2.17;;
2161;SDS011;1087;50.226;8.682;2023-04-15T13:33:19;1.90;;;1.80;;
2161;SDS011;1087;50.226;8.682;2023-04-15T13:35:44;1.90;;;1.80;;
2161;SDS011;1087;50.226;8.682;2023-04-15T13:38:10;1.50;;;1.40;;
2161;SDS011;1087;50.226;8.682;2023-04-15T13:40:35;2.07;;;1.87;;
2161;SDS011;1087;50.226;8.682;2023-04-15T13:43:01;1.63;;;1.50;;
2161;SDS011;1087;50.226;8.682;2023-04-15T13:45:27;2.90;;;2.60;;
2161;SDS011;1087;50.226;8.682;2023-04-15T13:47:54;3.80;;;2.93;;
2161;SDS011;1087;50.226;8.682;2023-04-15T13:50:20;2.37;;;2.17;;
2161;SDS011;1087;50.226;8.682;2023-04-15T13:52:45;2.43;;;1.90;;
2161;SDS011;1087;50.226;8.682;2023-04-15T13:55:11;2.33;;;2.13;;
2161;SDS011;1087;50.226;8.682;2023-04-15T13:57:36;2.73;;;2.53;;
2161;SDS011;1087;50.226;8.682;2023-04-15T14:00:02;3.00;;;2.80;;
2161;SDS011;1087;50.226;8.682;2023-04-15T14:02:28;3.50;;;3.20;;
2161;SDS011;1087;50.226;8.682;2023-04-15T14:04:54;2.57;;;2.37;;
2161;SDS011;1087;50.226;8.682;2023-04-15T14:07:20;2.90;;;2.70;;
2161;SDS011;1087;50.226;8.682;2023-04-15T14:09:45;4.83;;;2.80;;
2161;SDS011;1087;50.226;8.682;2023-04-15T14:12:12;4.07;;;3.37;;
2161;SDS011;1087;50.226;8.682;2023-04-15T14:14:38;3.37;;;2.97;;
2161;SDS011;1087;50.226;8.682;2023-04-15T14:17:04;3.23;;;2.90;;
2161;SDS011;1087;50.226;8.682;2023-04-15T14:19:29;3.53;;;3.23;;
2161;SDS011;1087;50.226;8.682;2023-04-15T14:21:56;3.50;;;3.20;;
2161;SDS011;1087;50.226;8.682;2023-04-15T14:24:21;4.40;;;4.00;;
2161;SDS011;1087;50.226;8.682;2023-04-15T14:26:47;3.17;;;2.97;;
2161;SDS011;1087;50.226;8.682;2023-04-15T14:29:12;2.90;;;2.70;;
2161;SDS011;1087;50.226;8.682;2023-04-15T14:31:38;2.90;;;2.70;;
2161;SDS011;1087;50.226;8.682;2023-04-15T14:34:04;2.50;;;2.30;;
2161;SDS011;1087;50.226;8.682;2023-04-15T14:36:30;2.93;;;2.63;;
2161;SDS011;1087;50.226;8.682;2023-04-15T14:38:56;2.50;;;2.30;;
2161;SDS011;1087;50.226;8.682;2023-04-15T14:41:22;3.20;;;3.00;;
2161;SDS011;1087;50.226;8.682;2023-04-15T14:43:47;2.30;;;2.10;;
2161;SDS011;1087;50.226;8.682;2023-04-15T14:46:13;2.83;;;2.63;;
2161;SDS011;1087;50.226;8.682;2023-04-15T14:48:39;3.00;;;2.60;;
2161;SDS011;1087;50.226;8.682;2023-04-15T14:51:05;2.30;;;2.10;;
2161;SDS011;1087;50.226;8.682;2023-04-15T14:53:30;3.10;;;2.70;;
2161;SDS011;1087;50.226;8.682;2023-04-15T14:55:56;2.57;;;2.37;;
2161;SDS011;1087;50.226;8.682;2023-04-15T14:58:21;2.57;;;2.10;;
2161;SDS011;1087;50.226;8.682;2023-04-15T15:00:47;2.57;;;2.30;;
2161;SDS011;1087;50.226;8.682;2023-04-15T15:03:13;4.50;;;2.17;;
2161;SDS011;1087;50.226;8.682;2023-04-15T15:05:39;2.40;;;2.20;;
2161;SDS011;1087;50.226;8.682;2023-04-15T15:08:06;2.10;;;1.90;;
2161;SDS011;1087;50.226;8.682;2023-04-15T15:10:33;2.33;;;1.97;;
2161;SDS011;1087;50.226;8.682;2023-04-15T15:12:59;2.73;;;2.47;;
2161;SDS011;1087;50.226;8.682;2023-04-15T15:15:25;2.50;;;2.30;;
2161;SDS011;1087;50.226;8.682;2023-04-15T15:17:52;2.50;;;2.30;;
2161;SDS011;1087;50.226;8.682;2023-04-15T15:20:17;2.17;;;1.97;;
2161;SDS011;1087;50.226;8.682;2023-04-15T15:22:43;2.60;;;2.40;;